createdAt,value
2024-03-10T00:00:07.411Z,11.43
2024-03-10T00:00:39.181Z,11.50
2024-03-10T00:01:11.263Z,11.80
2024-03-10T00:01:43.275Z,11.45
2024-03-10T00:02:15.251Z,12.00
2024-03-10T00:02:47.314Z,12.25
2024-03-10T00:03:19.329Z,11.60
2024-03-10T00:03:51.120Z,11.48
2024-03-10T00:04:22.951Z,11.65
2024-03-10T00:04:54.804Z,11.30
2024-03-10T00:05:26.771Z,11.27
2024-03-10T00:05:58.778Z,12.57
2024-03-10T00:06:30.645Z,11.20
2024-03-10T00:07:02.576Z,11.75
2024-03-10T00:07:34.520Z,11.40
2024-03-10T00:08:06.967Z,11.52
2024-03-10T00:08:39.017Z,12.18
2024-03-10T00:09:10.836Z,11.57
2024-03-10T00:09:42.707Z,10.82
2024-03-10T00:10:15.671Z,11.70
2024-03-10T00:10:47.690Z,11.63
2024-03-10T00:11:19.735Z,11.63
2024-03-10T00:11:51.733Z,11.88
2024-03-10T00:12:23.748Z,12.07
2024-03-10T00:12:56.982Z,11.32
2024-03-10T00:13:28.862Z,12.00
2024-03-10T00:14:00.746Z,11.63
2024-03-10T00:14:32.605Z,10.98
2024-03-10T00:15:05.316Z,10.85
2024-03-10T00:15:37.149Z,11.23
2024-03-10T00:16:08.983Z,11.52
2024-03-10T00:16:40.836Z,11.30
2024-03-10T00:17:12.854Z,11.23
2024-03-10T00:17:45.086Z,10.65
2024-03-10T00:18:17.174Z,11.00
2024-03-10T00:18:49.059Z,11.20
2024-03-10T00:19:20.814Z,10.90
2024-03-10T00:19:52.875Z,10.60
2024-03-10T00:20:25.061Z,11.27
2024-03-10T00:20:56.939Z,10.45
2024-03-10T00:21:28.777Z,11.23
2024-03-10T00:22:02.450Z,11.18
2024-03-10T00:22:34.318Z,10.87
2024-03-10T00:23:06.201Z,10.98
2024-03-10T00:23:38.649Z,11.38
2024-03-10T00:24:11.492Z,10.65
2024-03-10T00:24:43.677Z,10.60
2024-03-10T00:25:15.939Z,11.30
2024-03-10T00:25:47.987Z,10.25
2024-03-10T00:26:19.995Z,10.80
2024-03-10T00:26:51.902Z,10.40
2024-03-10T00:27:23.693Z,10.13
2024-03-10T00:27:56.854Z,10.38
2024-03-10T00:28:28.648Z,10.73
2024-03-10T00:29:00.532Z,10.48
2024-03-10T00:29:32.605Z,9.98
2024-03-10T00:30:05.263Z,10.10
2024-03-10T00:30:37.127Z,10.25
2024-03-10T00:31:08.918Z,11.15
2024-03-10T00:31:41.131Z,10.88
2024-03-10T00:32:13.156Z,10.50
2024-03-10T00:32:45.120Z,10.73
2024-03-10T00:33:17.292Z,10.77
2024-03-10T00:33:49.396Z,10.60
2024-03-10T00:34:21.338Z,11.57
2024-03-10T00:34:53.247Z,11.20
2024-03-10T00:35:25.221Z,10.27
2024-03-10T00:35:57.159Z,10.98
2024-03-10T00:36:29.041Z,10.73
2024-03-10T00:37:00.813Z,10.70
2024-03-10T00:37:32.815Z,11.52
2024-03-10T00:38:04.847Z,11.00
2024-03-10T00:38:36.805Z,11.57
2024-03-10T00:39:08.691Z,10.60
2024-03-10T00:39:40.506Z,11.15
2024-03-10T00:40:12.641Z,10.70
2024-03-10T00:40:44.684Z,10.50
2024-03-10T00:41:16.574Z,10.43
2024-03-10T00:41:48.407Z,10.38
2024-03-10T00:42:20.482Z,11.02
2024-03-10T00:42:52.431Z,10.75
2024-03-10T00:43:25.678Z,10.32
2024-03-10T00:43:57.484Z,10.20
2024-03-10T00:44:29.291Z,10.90
2024-03-10T00:45:01.862Z,10.37
2024-03-10T00:45:33.862Z,10.93
2024-03-10T00:46:05.740Z,10.43
2024-03-10T00:46:37.584Z,11.05
2024-03-10T00:47:12.137Z,10.75
2024-03-10T00:47:44.699Z,10.73
2024-03-10T00:48:17.064Z,11.85
2024-03-10T00:48:49.098Z,11.87
2024-03-10T00:49:20.980Z,11.23
2024-03-10T00:49:53.070Z,10.55
2024-03-10T00:50:25.127Z,10.95
2024-03-10T00:50:57.230Z,10.85
2024-03-10T00:51:29.077Z,11.63
2024-03-10T00:52:00.900Z,10.95
2024-03-10T00:52:32.868Z,11.10
2024-03-10T00:53:04.895Z,10.95
2024-03-10T00:53:36.982Z,10.90
2024-03-10T00:54:10.840Z,10.85
2024-03-10T00:54:42.627Z,10.88
2024-03-10T00:55:14.594Z,9.90
2024-03-10T00:55:46.509Z,10.38
2024-03-10T00:56:18.366Z,10.50
2024-03-10T00:56:50.186Z,10.43
2024-03-10T00:57:22.119Z,10.07
2024-03-10T00:57:54.016Z,10.13
2024-03-10T00:58:27.363Z,10.15
2024-03-10T00:58:59.363Z,10.57
2024-03-10T00:59:31.288Z,9.90
2024-03-10T01:00:03.945Z,10.07
2024-03-10T01:00:35.896Z,10.25
2024-03-10T01:01:07.722Z,9.67
2024-03-10T01:01:39.703Z,9.73
2024-03-10T01:02:13.003Z,9.90
2024-03-10T01:02:44.978Z,10.38
2024-03-10T01:03:16.788Z,9.98
2024-03-10T01:03:48.752Z,10.13
2024-03-10T01:04:20.514Z,10.00
2024-03-10T01:04:52.316Z,10.52
2024-03-10T01:05:24.436Z,10.27
2024-03-10T01:05:56.413Z,10.35
2024-03-10T01:06:28.199Z,10.20
2024-03-10T01:07:00.054Z,9.82
2024-03-10T01:07:33.950Z,9.85
2024-03-10T01:08:06.172Z,10.25
2024-03-10T01:08:38.309Z,9.55
2024-03-10T01:09:10.412Z,10.80
2024-03-10T01:09:42.525Z,9.90
2024-03-10T01:10:14.499Z,9.82
2024-03-10T01:10:46.414Z,10.27
2024-03-10T01:11:18.389Z,9.52
2024-03-10T01:11:50.438Z,9.73
2024-03-10T01:12:22.388Z,9.68
2024-03-10T01:12:55.921Z,10.10
2024-03-10T01:13:29.056Z,9.13
2024-03-10T01:14:01.826Z,9.63
2024-03-10T01:14:33.655Z,9.60
2024-03-10T01:15:06.117Z,9.73
2024-03-10T01:15:38.013Z,9.80
2024-03-10T01:16:09.910Z,10.40
2024-03-10T01:16:41.839Z,9.80
2024-03-10T01:17:13.741Z,10.38
2024-03-10T01:17:45.798Z,10.00
2024-03-10T01:18:17.832Z,9.60
2024-03-10T01:18:49.749Z,10.38
2024-03-10T01:19:21.499Z,9.73
2024-03-10T01:19:53.936Z,9.70
2024-03-10T01:20:25.940Z,9.80
2024-03-10T01:20:57.719Z,9.98
2024-03-10T01:21:29.549Z,10.73
2024-03-10T01:22:01.565Z,10.20
2024-03-10T01:22:33.465Z,9.85
2024-03-10T01:23:05.374Z,9.45
2024-03-10T01:23:37.359Z,9.73
2024-03-10T01:24:09.117Z,9.35
2024-03-10T01:24:40.945Z,9.65
2024-03-10T01:25:12.812Z,9.98
2024-03-10T01:25:45.147Z,9.90
2024-03-10T01:26:17.005Z,9.70
2024-03-10T01:26:48.862Z,10.02
2024-03-10T01:27:20.674Z,10.38
2024-03-10T01:27:52.577Z,9.98
2024-03-10T01:28:24.315Z,9.60
2024-03-10T01:28:57.625Z,9.52
2024-03-10T01:29:29.487Z,9.98
2024-03-10T01:30:01.567Z,10.05
2024-03-10T01:30:33.350Z,9.98
2024-03-10T01:31:05.230Z,9.98
2024-03-10T01:31:37.415Z,10.30
2024-03-10T01:32:09.320Z,9.73
2024-03-10T01:32:41.207Z,9.73
2024-03-10T01:33:13.649Z,9.63
2024-03-10T01:33:45.461Z,9.40
2024-03-10T01:34:17.262Z,10.02
2024-03-10T01:34:49.062Z,9.80
2024-03-10T01:35:21.037Z,9.25
2024-03-10T01:35:53.636Z,9.50
2024-03-10T01:36:26.262Z,9.90
2024-03-10T01:37:04.413Z,9.57
2024-03-10T01:37:36.560Z,9.30
2024-03-10T01:38:08.558Z,9.57
2024-03-10T01:38:40.601Z,9.55
2024-03-10T01:39:12.445Z,10.40
2024-03-10T01:39:44.284Z,9.77
2024-03-10T01:40:16.545Z,9.57
2024-03-10T01:40:48.492Z,9.68
2024-03-10T01:41:20.408Z,9.65
2024-03-10T01:41:52.351Z,9.57
2024-03-10T01:42:24.159Z,9.02
2024-03-10T01:42:56.318Z,9.80
2024-03-10T01:43:28.105Z,10.35
2024-03-10T01:44:02.932Z,10.55
2024-03-10T01:44:34.903Z,10.07
2024-03-10T01:45:08.458Z,10.15
2024-03-10T01:45:40.798Z,9.63
2024-03-10T01:46:13.680Z,9.60
2024-03-10T01:46:45.644Z,9.48
2024-03-10T01:47:17.582Z,9.88
2024-03-10T01:47:50.693Z,9.98
2024-03-10T01:48:22.845Z,10.13
2024-03-10T01:48:55.196Z,9.68
2024-03-10T01:49:27.456Z,9.68
2024-03-10T01:49:59.582Z,10.23
2024-03-10T01:50:31.452Z,9.27
2024-03-10T01:51:03.627Z,9.60
2024-03-10T01:51:37.954Z,9.85
2024-03-10T01:52:11.718Z,10.25
2024-03-10T01:52:44.921Z,9.23
2024-03-10T01:53:16.839Z,9.77
2024-03-10T01:53:49.058Z,9.90
2024-03-10T01:54:26.922Z,9.82
2024-03-10T01:54:59.989Z,9.85
2024-03-10T01:55:31.917Z,10.37
2024-03-10T01:56:04.513Z,9.63
2024-03-10T01:56:37.565Z,9.52
2024-03-10T01:57:10.369Z,9.18
2024-03-10T01:57:43.947Z,9.60
2024-03-10T01:58:16.057Z,9.48
2024-03-10T01:58:48.317Z,9.57
2024-03-10T01:59:22.580Z,10.18
2024-03-10T01:59:55.849Z,10.10
2024-03-10T02:00:27.819Z,10.07
2024-03-10T02:01:00.365Z,10.25
2024-03-10T02:01:33.661Z,9.88
2024-03-10T02:02:05.783Z,9.48
2024-03-10T02:02:37.727Z,9.60
2024-03-10T02:03:10.204Z,10.00
2024-03-10T02:03:44.340Z,9.32
2024-03-10T02:04:16.714Z,9.55
2024-03-10T02:04:49.556Z,9.93
2024-03-10T02:05:22.128Z,9.82
2024-03-10T02:05:54.645Z,9.80
2024-03-10T02:06:26.647Z,9.48
2024-03-10T02:06:58.513Z,9.52
2024-03-10T02:07:30.326Z,9.50
2024-03-10T02:08:02.310Z,9.77
2024-03-10T02:08:34.056Z,9.73
2024-03-10T02:09:06.584Z,9.60
2024-03-10T02:09:38.413Z,9.30
2024-03-10T02:10:10.537Z,9.75
2024-03-10T02:10:43.813Z,9.50
2024-03-10T02:11:16.441Z,9.07
2024-03-10T02:11:49.916Z,9.35
2024-03-10T02:12:22.123Z,9.95
2024-03-10T02:12:54.623Z,9.90
2024-03-10T02:13:26.554Z,9.38
2024-03-10T02:13:58.336Z,9.38
2024-03-10T02:14:31.734Z,9.20
2024-03-10T02:15:04.952Z,10.13
2024-03-10T02:15:36.827Z,9.85
2024-03-10T02:16:09.599Z,9.45
2024-03-10T02:16:41.397Z,9.27
2024-03-10T02:17:13.214Z,9.65
2024-03-10T02:17:45.573Z,10.18
2024-03-10T02:18:17.455Z,8.90
2024-03-10T02:18:49.320Z,8.88
2024-03-10T02:19:21.228Z,9.30
2024-03-10T02:19:53.181Z,9.68
2024-03-10T02:20:25.172Z,8.77
2024-03-10T02:20:57.915Z,9.40
2024-03-10T02:21:30.143Z,9.82
2024-03-10T02:22:02.248Z,10.02
2024-03-10T02:22:34.393Z,8.60
2024-03-10T02:23:06.437Z,9.63
2024-03-10T02:23:41.661Z,9.23
2024-03-10T02:24:17.271Z,9.38
2024-03-10T02:24:50.921Z,9.43
2024-03-10T02:25:23.281Z,9.45
2024-03-10T02:25:56.747Z,9.70
2024-03-10T02:26:29.017Z,9.63
2024-03-10T02:27:01.075Z,9.60
2024-03-10T02:27:33.172Z,9.27
2024-03-10T02:28:05.892Z,10.35
2024-03-10T02:28:38.732Z,9.45
2024-03-10T02:29:10.849Z,10.00
2024-03-10T02:29:42.949Z,9.98
2024-03-10T02:30:14.881Z,9.70
2024-03-10T02:30:49.951Z,9.25
2024-03-10T02:31:21.989Z,9.93
2024-03-10T02:31:54.443Z,9.93
2024-03-10T02:32:27.332Z,9.50
2024-03-10T02:32:59.832Z,10.00
2024-03-10T02:33:31.625Z,9.43
2024-03-10T02:34:04.402Z,9.90
2024-03-10T02:34:37.522Z,9.48
2024-03-10T02:35:09.396Z,10.25
2024-03-10T02:35:41.384Z,9.38
2024-03-10T02:36:15.022Z,10.20
2024-03-10T02:36:47.428Z,9.65
2024-03-10T02:37:19.470Z,9.48
2024-03-10T02:37:51.349Z,9.00
2024-03-10T02:38:23.425Z,9.80
2024-03-10T02:38:55.319Z,9.45
2024-03-10T02:39:27.171Z,9.27
2024-03-10T02:39:59.056Z,9.35
2024-03-10T02:40:31.007Z,9.63
2024-03-10T02:41:04.333Z,9.20
2024-03-10T02:41:36.234Z,9.02
2024-03-10T02:42:08.017Z,10.45
2024-03-10T02:42:40.754Z,8.43
2024-03-10T02:43:12.575Z,9.45
2024-03-10T02:43:44.567Z,9.87
2024-03-10T02:44:16.348Z,9.32
2024-03-10T02:44:48.176Z,9.20
2024-03-10T02:45:19.948Z,8.90
2024-03-10T02:45:51.773Z,9.25
2024-03-10T02:46:23.623Z,9.25
2024-03-10T02:46:55.460Z,9.07
2024-03-10T02:47:27.441Z,8.68
2024-03-10T02:47:59.395Z,9.48
2024-03-10T02:48:31.241Z,9.40
2024-03-10T02:49:03.045Z,10.27
2024-03-10T02:49:34.944Z,9.15
2024-03-10T02:50:07.285Z,8.57
2024-03-10T02:50:39.131Z,9.47
2024-03-10T02:51:10.868Z,8.95
2024-03-10T02:51:42.989Z,8.90
2024-03-10T02:52:14.846Z,9.27
2024-03-10T02:52:46.671Z,9.40
2024-03-10T02:53:18.566Z,9.20
2024-03-10T02:53:50.372Z,9.32
2024-03-10T02:54:22.436Z,9.73
2024-03-10T02:54:54.212Z,9.55
2024-03-10T02:55:25.999Z,8.90
2024-03-10T02:55:57.845Z,9.07
2024-03-10T02:56:31.058Z,9.30
2024-03-10T02:57:03.052Z,8.93
2024-03-10T02:57:34.856Z,8.85
2024-03-10T02:58:07.599Z,9.45
2024-03-10T02:58:39.854Z,9.07
2024-03-10T02:59:11.702Z,9.30
2024-03-10T02:59:44.394Z,9.60
2024-03-10T03:00:19.297Z,9.13
2024-03-10T03:00:51.742Z,9.15
2024-03-10T03:01:23.998Z,9.13
2024-03-10T03:01:55.853Z,9.68
2024-03-10T03:02:27.845Z,9.23
2024-03-10T03:02:59.939Z,10.07
2024-03-10T03:03:31.716Z,9.30
2024-03-10T03:04:03.626Z,9.60
2024-03-10T03:04:35.387Z,9.77
2024-03-10T03:05:08.021Z,9.32
2024-03-10T03:05:39.948Z,8.65
2024-03-10T03:06:12.273Z,8.70
2024-03-10T03:06:44.218Z,9.15
2024-03-10T03:07:16.200Z,8.95
2024-03-10T03:07:48.448Z,8.95
2024-03-10T03:08:20.506Z,8.98
2024-03-10T03:08:52.312Z,8.95
2024-03-10T03:09:24.108Z,9.38
2024-03-10T03:09:55.857Z,9.18
2024-03-10T03:10:27.722Z,9.27
2024-03-10T03:10:59.688Z,9.20
2024-03-10T03:11:35.434Z,8.98
2024-03-10T03:12:09.508Z,9.02
2024-03-10T03:12:41.456Z,9.05
2024-03-10T03:13:13.263Z,9.63
2024-03-10T03:13:45.122Z,8.75
2024-03-10T03:14:17.144Z,8.70
2024-03-10T03:14:49.012Z,9.05
2024-03-10T03:15:20.818Z,9.70
2024-03-10T03:15:52.604Z,8.93
2024-03-10T03:16:24.373Z,9.13
2024-03-10T03:16:56.166Z,8.90
2024-03-10T03:17:28.506Z,8.27
2024-03-10T03:18:00.486Z,9.13
2024-03-10T03:18:32.917Z,9.05
2024-03-10T03:19:04.669Z,8.40
2024-03-10T03:19:37.682Z,9.17
2024-03-10T03:20:10.800Z,9.20
2024-03-10T03:20:42.629Z,8.70
2024-03-10T03:21:14.467Z,8.55
2024-03-10T03:21:46.264Z,8.80
2024-03-10T03:22:18.083Z,8.50
2024-03-10T03:22:50.468Z,9.05
2024-03-10T03:23:22.432Z,8.73
2024-03-10T03:23:54.333Z,9.10
2024-03-10T03:24:26.264Z,8.35
2024-03-10T03:24:58.136Z,8.85
2024-03-10T03:25:29.916Z,8.98
2024-03-10T03:26:01.775Z,9.40
2024-03-10T03:26:35.203Z,9.18
2024-03-10T03:27:07.106Z,9.27
2024-03-10T03:27:39.112Z,8.77
2024-03-10T03:28:10.985Z,8.68
2024-03-10T03:28:42.879Z,8.90
2024-03-10T03:29:14.737Z,9.02
2024-03-10T03:29:47.864Z,9.32
2024-03-10T03:30:20.527Z,8.63
2024-03-10T03:30:52.413Z,9.02
2024-03-10T03:31:24.196Z,8.82
2024-03-10T03:31:56.114Z,9.18
2024-03-10T03:32:28.201Z,9.13
2024-03-10T03:33:00.099Z,9.05
2024-03-10T03:33:31.881Z,8.57
2024-03-10T03:34:03.605Z,8.60
2024-03-10T03:34:35.445Z,8.77
2024-03-10T03:35:07.869Z,8.65
2024-03-10T03:35:39.785Z,8.73
2024-03-10T03:36:11.582Z,8.88
2024-03-10T03:36:43.525Z,7.90
2024-03-10T03:37:15.368Z,8.52
2024-03-10T03:37:48.166Z,8.55
2024-03-10T03:38:20.433Z,8.50
2024-03-10T03:38:52.329Z,9.00
2024-03-10T03:39:24.117Z,8.75
2024-03-10T03:39:55.911Z,8.55
2024-03-10T03:40:27.715Z,8.68
2024-03-10T03:40:59.548Z,9.10
2024-03-10T03:41:31.499Z,8.80
2024-03-10T03:42:04.965Z,8.40
2024-03-10T03:42:36.942Z,8.43
2024-03-10T03:43:08.767Z,8.52
2024-03-10T03:43:40.595Z,8.05
2024-03-10T03:44:12.516Z,8.77
2024-03-10T03:44:44.342Z,8.75
2024-03-10T03:45:16.150Z,7.78
2024-03-10T03:45:47.924Z,8.55
2024-03-10T03:46:19.667Z,8.95
2024-03-10T03:46:51.450Z,8.98
2024-03-10T03:47:23.455Z,8.75
2024-03-10T03:47:55.467Z,8.68
2024-03-10T03:48:27.517Z,8.32
2024-03-10T03:48:59.375Z,9.05
2024-03-10T03:49:31.257Z,8.32
2024-03-10T03:50:03.461Z,7.93
2024-03-10T03:50:35.639Z,8.45
2024-03-10T03:51:07.469Z,8.05
2024-03-10T03:51:39.282Z,8.38
2024-03-10T03:52:11.215Z,8.95
2024-03-10T03:52:43.144Z,8.15
2024-03-10T03:53:14.973Z,8.20
2024-03-10T03:53:46.815Z,8.20
2024-03-10T03:54:18.544Z,7.80
2024-03-10T03:54:50.471Z,8.13
2024-03-10T03:55:22.416Z,7.95
2024-03-10T03:55:54.270Z,7.90
2024-03-10T03:56:26.268Z,8.25
2024-03-10T03:56:58.187Z,7.82
2024-03-10T03:57:31.305Z,8.35
2024-03-10T03:58:03.291Z,8.77
2024-03-10T03:58:35.128Z,8.68
2024-03-10T03:59:07.036Z,8.05
2024-03-10T03:59:39.624Z,7.75
2024-03-10T04:00:12.601Z,8.35
2024-03-10T04:00:44.504Z,8.60
2024-03-10T04:01:16.530Z,8.25
2024-03-10T04:01:48.436Z,8.50
2024-03-10T04:02:20.221Z,7.95
2024-03-10T04:02:52.002Z,8.48
2024-03-10T04:03:23.780Z,8.02
2024-03-10T04:03:55.537Z,8.60
2024-03-10T04:04:27.509Z,7.70
2024-03-10T04:04:59.331Z,8.85
2024-03-10T04:05:31.306Z,8.45
2024-03-10T04:06:03.333Z,8.07
2024-03-10T04:06:35.465Z,8.02
2024-03-10T04:07:07.289Z,7.47
2024-03-10T04:07:40.775Z,8.85
2024-03-10T04:08:12.924Z,7.80
2024-03-10T04:08:44.990Z,8.55
2024-03-10T04:09:16.952Z,8.00
2024-03-10T04:09:48.955Z,8.68
2024-03-10T04:10:21.014Z,8.75
2024-03-10T04:10:53.107Z,8.93
2024-03-10T04:11:25.177Z,7.90
2024-03-10T04:11:57.462Z,8.35
2024-03-10T04:12:30.738Z,7.78
2024-03-10T04:13:02.732Z,7.95
2024-03-10T04:13:35.158Z,7.97
2024-03-10T04:14:07.086Z,7.70
2024-03-10T04:14:39.230Z,8.27
2024-03-10T04:15:11.057Z,8.32
2024-03-10T04:15:42.870Z,8.15
2024-03-10T04:16:14.719Z,8.23
2024-03-10T04:16:46.648Z,8.13
2024-03-10T04:17:18.493Z,7.32
2024-03-10T04:17:50.351Z,8.27
2024-03-10T04:18:22.262Z,8.00
2024-03-10T04:18:54.112Z,8.30
2024-03-10T04:19:26.114Z,8.32
2024-03-10T04:19:57.935Z,8.38
2024-03-10T04:20:29.948Z,7.43
2024-03-10T04:21:01.845Z,8.45
2024-03-10T04:21:33.804Z,7.60
2024-03-10T04:22:06.208Z,7.75
2024-03-10T04:22:38.369Z,7.93
2024-03-10T04:23:10.216Z,7.90
2024-03-10T04:23:41.978Z,7.53
2024-03-10T04:24:13.884Z,8.40
2024-03-10T04:24:45.785Z,7.72
2024-03-10T04:25:17.831Z,8.10
2024-03-10T04:25:49.702Z,8.18
2024-03-10T04:26:21.651Z,8.07
2024-03-10T04:26:53.637Z,7.70
2024-03-10T04:27:25.558Z,7.60
2024-03-10T04:27:58.733Z,7.68
2024-03-10T04:28:30.491Z,7.95
2024-03-10T04:29:02.401Z,8.20
2024-03-10T04:29:34.253Z,7.95
2024-03-10T04:30:07.346Z,8.35
2024-03-10T04:30:39.138Z,8.32
2024-03-10T04:31:11.038Z,7.80
2024-03-10T04:31:42.964Z,8.40
2024-03-10T04:32:14.922Z,8.40
2024-03-10T04:32:46.840Z,8.30
2024-03-10T04:33:18.723Z,7.75
2024-03-10T04:33:50.525Z,7.82
2024-03-10T04:34:22.288Z,7.72
2024-03-10T04:34:55.643Z,7.57
2024-03-10T04:35:27.672Z,7.78
2024-03-10T04:35:59.519Z,7.95
2024-03-10T04:36:31.670Z,7.53
2024-03-10T04:37:04.547Z,8.10
2024-03-10T04:37:36.647Z,7.70
2024-03-10T04:38:08.550Z,8.13
2024-03-10T04:38:40.548Z,8.18
2024-03-10T04:39:12.446Z,7.50
2024-03-10T04:39:44.218Z,7.50
2024-03-10T04:40:16.575Z,8.50
2024-03-10T04:40:48.832Z,7.85
2024-03-10T04:41:20.727Z,8.05
2024-03-10T04:41:52.630Z,8.02
2024-03-10T04:42:24.418Z,8.15
2024-03-10T04:42:57.659Z,7.97
2024-03-10T04:43:29.458Z,8.30
2024-03-10T04:44:01.426Z,8.45
2024-03-10T04:44:33.370Z,8.80
2024-03-10T04:45:05.647Z,8.60
2024-03-10T04:45:37.444Z,8.55
2024-03-10T04:46:09.455Z,7.57
2024-03-10T04:46:41.220Z,7.40
2024-03-10T04:47:13.091Z,7.93
2024-03-10T04:47:45.121Z,8.10
2024-03-10T04:48:17.312Z,8.05
2024-03-10T04:48:49.236Z,8.32
2024-03-10T04:49:21.076Z,7.82
2024-03-10T04:49:52.889Z,7.70
2024-03-10T04:50:24.903Z,8.07
2024-03-10T04:50:56.748Z,7.75
2024-03-10T04:51:28.551Z,8.40
2024-03-10T04:52:00.480Z,7.97
2024-03-10T04:52:32.409Z,7.95
2024-03-10T04:53:04.527Z,7.72
2024-03-10T04:53:36.669Z,8.50
2024-03-10T04:54:08.534Z,7.70
2024-03-10T04:54:40.352Z,7.88
2024-03-10T04:55:12.218Z,7.50
2024-03-10T04:55:44.236Z,7.95
2024-03-10T04:56:16.052Z,8.00
2024-03-10T04:56:47.812Z,8.73
2024-03-10T04:57:19.829Z,7.95
2024-03-10T04:57:51.696Z,7.50
2024-03-10T04:58:24.814Z,8.05
2024-03-10T04:58:56.669Z,7.63
2024-03-10T04:59:28.537Z,8.13
2024-03-10T05:00:00.501Z,7.43
2024-03-10T05:00:33.854Z,8.10
2024-03-10T05:01:06.898Z,7.68
2024-03-10T05:01:38.765Z,7.80
2024-03-10T05:02:10.588Z,7.47
2024-03-10T05:02:42.436Z,7.70
2024-03-10T05:03:14.255Z,7.50
2024-03-10T05:03:46.020Z,8.10
2024-03-10T05:04:17.815Z,8.02
2024-03-10T05:04:49.641Z,8.35
2024-03-10T05:05:21.507Z,8.38
2024-03-10T05:05:53.278Z,8.15
2024-03-10T05:06:25.051Z,7.95
2024-03-10T05:06:57.164Z,8.02
2024-03-10T05:07:29.059Z,8.20
2024-03-10T05:08:00.928Z,8.27
2024-03-10T05:08:33.059Z,8.27
2024-03-10T05:09:05.243Z,8.20
2024-03-10T05:09:37.243Z,8.60
2024-03-10T05:10:09.965Z,8.23
2024-03-10T05:10:41.781Z,8.02
2024-03-10T05:11:13.830Z,8.25
2024-03-10T05:11:45.884Z,8.48
2024-03-10T05:12:18.012Z,7.82
2024-03-10T05:12:50.254Z,7.93
2024-03-10T05:13:22.214Z,8.10
2024-03-10T05:13:55.403Z,7.88
2024-03-10T05:14:27.344Z,8.20
2024-03-10T05:14:59.208Z,8.02
2024-03-10T05:15:30.982Z,8.65
2024-03-10T05:16:03.397Z,7.97
2024-03-10T05:16:35.188Z,7.93
2024-03-10T05:17:07.118Z,7.82
2024-03-10T05:17:39.301Z,7.80
2024-03-10T05:18:11.299Z,8.13
2024-03-10T05:18:43.567Z,8.55
2024-03-10T05:19:15.429Z,7.93
2024-03-10T05:19:47.422Z,8.20
2024-03-10T05:20:19.931Z,8.43
2024-03-10T05:20:51.826Z,7.85
2024-03-10T05:21:23.696Z,7.80
2024-03-10T05:21:55.624Z,8.50
2024-03-10T05:22:27.388Z,8.10
2024-03-10T05:22:59.281Z,7.75
2024-03-10T05:23:31.167Z,8.30
2024-03-10T05:24:02.995Z,8.40
2024-03-10T05:24:34.717Z,8.60
2024-03-10T05:25:07.763Z,7.95
2024-03-10T05:25:39.522Z,8.13
2024-03-10T05:26:11.396Z,8.95
2024-03-10T05:26:43.214Z,7.97
2024-03-10T05:27:14.975Z,8.50
2024-03-10T05:27:46.758Z,8.25
2024-03-10T05:28:18.549Z,8.02
2024-03-10T05:28:50.369Z,8.23
2024-03-10T05:29:23.604Z,8.68
2024-03-10T05:29:55.498Z,8.80
2024-03-10T05:30:27.238Z,8.38
2024-03-10T05:30:59.052Z,8.35
2024-03-10T05:31:32.194Z,8.20
2024-03-10T05:32:04.696Z,8.18
2024-03-10T05:32:36.585Z,8.10
2024-03-10T05:33:08.548Z,8.27
2024-03-10T05:33:40.365Z,7.38
2024-03-10T05:34:12.179Z,7.57
2024-03-10T05:34:44.153Z,8.00
2024-03-10T05:35:16.003Z,7.82
2024-03-10T05:35:47.943Z,8.23
2024-03-10T05:36:19.697Z,8.63
2024-03-10T05:36:52.096Z,8.57
2024-03-10T05:37:24.047Z,7.80
2024-03-10T05:37:55.953Z,8.98
2024-03-10T05:38:27.974Z,8.30
2024-03-10T05:39:00.083Z,7.93
2024-03-10T05:39:31.926Z,7.93
2024-03-10T05:40:04.085Z,8.00
2024-03-10T05:40:35.849Z,8.75
2024-03-10T05:41:07.724Z,7.57
2024-03-10T05:41:39.724Z,8.30
2024-03-10T05:42:11.567Z,7.93
2024-03-10T05:42:43.372Z,8.02
2024-03-10T05:43:15.110Z,8.02
2024-03-10T05:43:47.420Z,8.93
2024-03-10T05:44:19.370Z,8.10
2024-03-10T05:44:52.516Z,8.18
2024-03-10T05:45:24.313Z,8.50
2024-03-10T05:45:56.360Z,8.02
2024-03-10T05:46:28.116Z,8.82
2024-03-10T05:47:02.699Z,8.13
2024-03-10T05:47:34.981Z,8.13
2024-03-10T05:48:07.095Z,7.78
2024-03-10T05:48:39.022Z,7.45
2024-03-10T05:49:10.837Z,8.20
2024-03-10T05:49:42.622Z,8.15
2024-03-10T05:50:14.524Z,7.63
2024-03-10T05:50:46.272Z,8.48
2024-03-10T05:51:18.063Z,8.40
2024-03-10T05:51:49.878Z,8.50
2024-03-10T05:52:21.734Z,8.52
2024-03-10T05:52:53.564Z,8.30
2024-03-10T05:53:25.468Z,8.57
2024-03-10T05:53:57.383Z,8.20
2024-03-10T05:54:29.236Z,8.00
2024-03-10T05:55:01.151Z,8.07
2024-03-10T05:55:32.965Z,8.30
2024-03-10T05:56:05.432Z,8.30
2024-03-10T05:56:37.286Z,8.68
2024-03-10T05:57:09.231Z,8.32
2024-03-10T05:57:41.155Z,8.35
2024-03-10T05:58:14.234Z,8.53
2024-03-10T05:58:46.459Z,8.03
2024-03-10T05:59:18.387Z,7.78
2024-03-10T05:59:51.553Z,7.72
2024-03-10T06:00:26.609Z,7.75
2024-03-10T06:00:58.819Z,8.33
2024-03-10T06:01:30.846Z,8.35
2024-03-10T06:02:03.070Z,8.02
2024-03-10T06:02:35.036Z,8.07
2024-03-10T06:03:06.796Z,8.02
2024-03-10T06:03:38.707Z,8.50
2024-03-10T06:04:10.476Z,8.60
2024-03-10T06:04:42.332Z,8.30
2024-03-10T06:05:15.298Z,8.52
2024-03-10T06:05:47.362Z,8.25
2024-03-10T06:06:19.244Z,8.57
2024-03-10T06:06:51.288Z,9.00
2024-03-10T06:07:23.101Z,8.35
2024-03-10T06:07:55.365Z,8.50
2024-03-10T06:08:27.190Z,7.80
2024-03-10T06:08:59.093Z,7.65
2024-03-10T06:09:30.841Z,8.85
2024-03-10T06:10:02.611Z,8.13
2024-03-10T06:10:34.623Z,8.45
2024-03-10T06:11:06.556Z,8.18
2024-03-10T06:11:38.678Z,8.55
2024-03-10T06:12:11.342Z,8.10
2024-03-10T06:12:43.664Z,8.60
2024-03-10T06:13:15.716Z,8.63
2024-03-10T06:13:47.611Z,7.88
2024-03-10T06:14:19.418Z,8.15
2024-03-10T06:14:52.743Z,8.95
2024-03-10T06:15:24.613Z,9.15
2024-03-10T06:15:56.391Z,8.40
2024-03-10T06:16:30.884Z,8.48
2024-03-10T06:17:03.180Z,9.07
2024-03-10T06:17:35.297Z,8.82
2024-03-10T06:18:07.669Z,8.63
2024-03-10T06:18:41.604Z,8.73
2024-03-10T06:19:13.766Z,8.40
2024-03-10T06:19:45.526Z,8.40
2024-03-10T06:20:17.731Z,8.38
2024-03-10T06:20:49.718Z,8.30
2024-03-10T06:21:21.678Z,8.43
2024-03-10T06:21:53.502Z,8.15
2024-03-10T06:22:25.245Z,8.52
2024-03-10T06:22:57.088Z,8.27
2024-03-10T06:23:28.948Z,8.73
2024-03-10T06:24:00.803Z,8.20
2024-03-10T06:24:32.606Z,8.70
2024-03-10T06:25:05.029Z,8.27
2024-03-10T06:25:36.749Z,8.38
2024-03-10T06:26:08.583Z,8.95
2024-03-10T06:26:41.802Z,8.68
2024-03-10T06:27:14.856Z,8.23
2024-03-10T06:27:46.675Z,8.73
2024-03-10T06:28:18.617Z,7.95
2024-03-10T06:28:51.241Z,8.60
2024-03-10T06:29:23.484Z,8.57
2024-03-10T06:29:56.686Z,8.10
2024-03-10T06:30:28.412Z,8.20
2024-03-10T06:31:00.214Z,8.45
2024-03-10T06:31:31.968Z,8.45
2024-03-10T06:32:04.125Z,8.27
2024-03-10T06:32:35.961Z,8.38
2024-03-10T06:33:07.880Z,8.52
2024-03-10T06:33:39.769Z,8.65
2024-03-10T06:34:12.019Z,8.18
2024-03-10T06:34:44.146Z,8.05
2024-03-10T06:35:16.124Z,8.45
2024-03-10T06:35:48.184Z,8.52
2024-03-10T06:36:20.009Z,8.07
2024-03-10T06:36:51.938Z,8.00
2024-03-10T06:37:23.748Z,8.25
2024-03-10T06:37:55.589Z,8.75
2024-03-10T06:38:27.529Z,8.52
2024-03-10T06:38:59.355Z,8.65
2024-03-10T06:39:31.099Z,8.30
2024-03-10T06:40:03.509Z,9.15
2024-03-10T06:40:35.249Z,8.30
2024-03-10T06:41:07.306Z,8.15
2024-03-10T06:41:39.177Z,8.50
2024-03-10T06:42:10.913Z,8.25
2024-03-10T06:42:44.979Z,8.77
2024-03-10T06:43:17.913Z,8.57
2024-03-10T06:43:49.956Z,8.48
2024-03-10T06:44:21.771Z,7.80
2024-03-10T06:44:53.563Z,9.05
2024-03-10T06:45:26.698Z,8.30
2024-03-10T06:45:58.664Z,8.45
2024-03-10T06:46:30.486Z,8.90
2024-03-10T06:47:02.290Z,8.48
2024-03-10T06:47:34.113Z,8.00
2024-03-10T06:48:06.901Z,8.73
2024-03-10T06:48:38.859Z,8.68
2024-03-10T06:49:10.636Z,9.05
2024-03-10T06:49:42.438Z,9.27
2024-03-10T06:50:14.322Z,8.55
2024-03-10T06:50:48.206Z,9.00
2024-03-10T06:51:20.601Z,8.60
2024-03-10T06:51:52.323Z,8.35
2024-03-10T06:52:24.108Z,8.97
2024-03-10T06:52:55.842Z,8.75
2024-03-10T06:53:28.062Z,8.60
2024-03-10T06:53:59.848Z,8.45
2024-03-10T06:54:31.624Z,8.50
2024-03-10T06:55:04.144Z,8.48
2024-03-10T06:55:35.866Z,7.93
2024-03-10T06:56:07.864Z,8.38
2024-03-10T06:56:39.835Z,8.65
2024-03-10T06:57:11.757Z,7.87
2024-03-10T06:57:43.494Z,8.52
2024-03-10T06:58:15.291Z,8.63
2024-03-10T06:58:47.077Z,9.07
2024-03-10T06:59:19.448Z,8.05
2024-03-10T06:59:51.247Z,8.02
2024-03-10T07:00:23.053Z,8.63
2024-03-10T07:00:56.203Z,8.38
2024-03-10T07:01:28.021Z,8.30
2024-03-10T07:02:00.084Z,8.43
2024-03-10T07:02:32.052Z,8.57
2024-03-10T07:03:04.612Z,8.15
2024-03-10T07:03:36.619Z,8.85
2024-03-10T07:04:08.399Z,8.40
2024-03-10T07:04:40.174Z,9.00
2024-03-10T07:05:12.571Z,9.15